Time;durP1;ratioP1;P1;durP2;ratioP2;P2;SDS_P1;SDS_P2;PMS_P1;PMS_P2;Temp;Humidity;BMP_temperature;BMP_pressure;BME280_temperature;BME280_humidity;BME280_pressure;Samples;Min_cycle;Max_cycle;Signal;HPM_P1;HPM_P2
2022/02/16 00:02:16;;;;;;;9.30;5.45;;;;;;;;;;4842532;29;20101;-83
2022/02/16 00:04:42;;;;;;;9.57;5.75;;;;;;;;;;4842433;29;20037;-84
2022/02/16 00:07:09;;;;;;;11.23;6.32;;;;;;;;;;4842335;29;20036;-84
2022/02/16 00:09:36;;;;;;;11.57;5.95;;;;;;;;;;4842163;29;20034;-84
2022/02/16 00:12:02;;;;;;;9.13;5.70;;;;;;;;;;4842249;29;20057;-83
2022/02/16 00:14:28;;;;;;;10.25;5.35;;;;;;;;;;4842261;29;20429;-84
2022/02/16 00:16:55;;;;;;;8.35;5.38;;;;;;;;;;4842238;29;20041;-83
2022/02/16 00:19:21;;;;;;;9.77;5.20;;;;;;;;;;4841994;29;20087;-83
2022/02/16 00:21:47;;;;;;;8.55;4.55;;;;;;;;;;4842060;29;20419;-83
2022/02/16 00:24:13;;;;;;;8.70;5.20;;;;;;;;;;4841864;29;20053;-83
2022/02/16 00:26:40;;;;;;;9.00;5.28;;;;;;;;;;4842001;29;20038;-84
2022/02/16 00:29:06;;;;;;;9.18;5.10;;;;;;;;;;4843042;29;20058;-83
2022/02/16 00:31:32;;;;;;;7.93;4.75;;;;;;;;;;4842494;29;20117;-84
2022/02/16 00:33:59;;;;;;;9.10;5.20;;;;;;;;;;4841951;29;20038;-84
2022/02/16 00:36:25;;;;;;;9.32;5.38;;;;;;;;;;4841669;29;20479;-83
2022/02/16 00:38:51;;;;;;;8.63;4.60;;;;;;;;;;4841710;29;20149;-83
2022/02/16 00:41:17;;;;;;;8.38;4.85;;;;;;;;;;4843141;29;20042;-83
2022/02/16 00:43:43;;;;;;;9.77;4.50;;;;;;;;;;4841838;29;20499;-84
2022/02/16 00:46:10;;;;;;;8.30;5.15;;;;;;;;;;4841717;29;20034;-83
2022/02/16 00:48:36;;;;;;;7.97;4.82;;;;;;;;;;4842878;29;20255;-83
2022/02/16 00:51:03;;;;;;;10.02;5.07;;;;;;;;;;4841496;29;20042;-83
2022/02/16 00:53:29;;;;;;;8.20;4.80;;;;;;;;;;4841616;29;20179;-83
2022/02/16 00:55:55;;;;;;;8.32;4.95;;;;;;;;;;4841577;29;20483;-84
2022/02/16 00:58:21;;;;;;;9.55;5.00;;;;;;;;;;4841204;29;20034;-84
2022/02/16 01:00:48;;;;;;;6.45;4.10;;;;;;;;;;4842437;29;20484;-83
2022/02/16 01:03:14;;;;;;;7.82;4.43;;;;;;;;;;4842731;29;20491;-84
2022/02/16 01:05:40;;;;;;;7.45;4.45;;;;;;;;;;4842683;29;20030;-83
2022/02/16 01:08:10;;;;;;;9.27;4.30;;;;;;;;;;4841400;29;20133;-83
2022/02/16 01:10:37;;;;;;;7.05;4.40;;;;;;;;;;4841180;29;20030;-83
2022/02/16 01:13:03;;;;;;;8.88;5.43;;;;;;;;;;4841309;29;20474;-83
2022/02/16 01:15:30;;;;;;;9.05;5.25;;;;;;;;;;4842634;29;20073;-83
2022/02/16 01:17:56;;;;;;;7.55;4.97;;;;;;;;;;4841291;29;20062;-83
2022/02/16 01:20:22;;;;;;;8.90;5.10;;;;;;;;;;4842498;29;20034;-81
2022/02/16 01:22:48;;;;;;;8.75;5.30;;;;;;;;;;4841172;29;20049;-83
2022/02/16 01:25:15;;;;;;;8.85;5.18;;;;;;;;;;4841040;29;20036;-83
2022/02/16 01:27:41;;;;;;;9.25;5.15;;;;;;;;;;4842404;29;20030;-83
2022/02/16 01:30:08;;;;;;;7.47;4.70;;;;;;;;;;4842410;29;20076;-83
2022/02/16 01:32:34;;;;;;;7.95;5.18;;;;;;;;;;4840376;29;20476;-84
2022/02/16 01:35:00;;;;;;;9.77;5.60;;;;;;;;;;4841063;29;20046;-83
2022/02/16 01:37:27;;;;;;;8.48;5.35;;;;;;;;;;4840994;29;20030;-83
2022/02/16 01:39:53;;;;;;;9.40;5.43;;;;;;;;;;4842154;29;20092;-83
2022/02/16 01:42:20;;;;;;;8.32;5.07;;;;;;;;;;4840967;29;20038;-83
2022/02/16 01:44:47;;;;;;;7.97;4.93;;;;;;;;;;4841015;29;20055;-82
2022/02/16 01:47:13;;;;;;;8.98;5.20;;;;;;;;;;4840868;29;20198;-83
2022/02/16 01:49:40;;;;;;;9.00;5.57;;;;;;;;;;4840921;29;20147;-83
2022/02/16 01:52:07;;;;;;;8.45;5.25;;;;;;;;;;4841047;29;20381;-83
2022/02/16 01:54:33;;;;;;;9.68;5.50;;;;;;;;;;4841015;29;20036;-84
2022/02/16 01:57:00;;;;;;;12.73;6.22;;;;;;;;;;4840705;29;20491;-84
2022/02/16 01:59:26;;;;;;;10.15;6.53;;;;;;;;;;4840969;29;20030;-83
2022/02/16 02:01:53;;;;;;;12.48;7.07;;;;;;;;;;4834275;29;20070;-84
2022/02/16 02:04:20;;;;;;;12.93;5.53;;;;;;;;;;4823974;29;20491;-84
2022/02/16 02:06:46;;;;;;;8.55;5.15;;;;;;;;;;4822554;29;20117;-83
2022/02/16 02:09:13;;;;;;;7.45;4.72;;;;;;;;;;4823573;29;20521;-83
2022/02/16 02:11:39;;;;;;;7.68;5.43;;;;;;;;;;4827652;29;20514;-83
2022/02/16 02:14:06;;;;;;;7.95;4.78;;;;;;;;;;4836565;29;20108;-83
2022/02/16 02:16:33;;;;;;;7.80;4.82;;;;;;;;;;4846197;29;20053;-82
2022/02/16 02:19:00;;;;;;;7.95;4.82;;;;;;;;;;4846067;29;20034;-83
2022/02/16 02:21:26;;;;;;;7.72;4.90;;;;;;;;;;4844155;29;20437;-83
2022/02/16 02:23:53;;;;;;;8.35;4.88;;;;;;;;;;4844134;29;20037;-83
2022/02/16 02:26:19;;;;;;;8.57;5.05;;;;;;;;;;4844088;29;20069;-83
2022/02/16 02:28:46;;;;;;;9.38;5.72;;;;;;;;;;4845518;29;20083;-84
2022/02/16 02:31:13;;;;;;;9.57;5.70;;;;;;;;;;4845381;29;20424;-83
2022/02/16 02:33:39;;;;;;;9.02;5.47;;;;;;;;;;4843825;29;20102;-83
2022/02/16 02:36:06;;;;;;;10.02;6.40;;;;;;;;;;4844113;29;20038;-83
2022/02/16 02:38:33;;;;;;;13.00;6.43;;;;;;;;;;4843737;29;20075;-83
2022/02/16 02:41:00;;;;;;;12.82;6.20;;;;;;;;;;4838053;29;20041;-83
2022/02/16 02:43:27;;;;;;;8.77;5.93;;;;;;;;;;4819191;29;20033;-83
2022/02/16 02:45:53;;;;;;;12.25;6.88;;;;;;;;;;4810882;29;20030;-83
2022/02/16 02:48:20;;;;;;;13.23;6.97;;;;;;;;;;4817091;29;20110;-83
2022/02/16 02:50:46;;;;;;;13.00;6.97;;;;;;;;;;4825422;29;20514;-83
2022/02/16 02:53:12;;;;;;;10.93;6.80;;;;;;;;;;4826577;29;20035;-83
2022/02/16 02:55:39;;;;;;;13.40;7.53;;;;;;;;;;4825238;29;20034;-83
2022/02/16 02:58:05;;;;;;;13.38;8.13;;;;;;;;;;4826620;29;20034;-84
2022/02/16 03:00:31;;;;;;;11.93;7.20;;;;;;;;;;4826472;29;20051;-83
2022/02/16 03:02:57;;;;;;;13.18;7.75;;;;;;;;;;4825217;29;20175;-83
2022/02/16 03:05:23;;;;;;;12.55;7.80;;;;;;;;;;4825233;29;20453;-83
2022/02/16 03:07:50;;;;;;;15.05;8.35;;;;;;;;;;4825114;29;20086;-83
2022/02/16 03:10:17;;;;;;;12.95;7.85;;;;;;;;;;4825660;29;20445;-83
2022/02/16 03:12:43;;;;;;;12.77;8.25;;;;;;;;;;4826526;29;20105;-84
2022/02/16 03:15:09;;;;;;;15.05;8.48;;;;;;;;;;4825117;29;20038;-83
2022/02/16 03:17:36;;;;;;;14.23;7.97;;;;;;;;;;4825135;29;20035;-83
2022/02/16 03:20:04;;;;;;;14.63;8.57;;;;;;;;;;4824699;29;20054;-83
2022/02/16 03:22:30;;;;;;;16.15;8.88;;;;;;;;;;4825056;29;20048;-82
2022/02/16 03:24:56;;;;;;;15.48;8.98;;;;;;;;;;4826379;29;20034;-83
2022/02/16 03:27:23;;;;;;;19.15;9.25;;;;;;;;;;4826436;29;20034;-82
2022/02/16 03:29:49;;;;;;;16.42;9.05;;;;;;;;;;4826362;29;20030;-82
2022/02/16 03:32:15;;;;;;;15.35;8.77;;;;;;;;;;4824777;29;20385;-83
2022/02/16 03:34:42;;;;;;;16.15;9.27;;;;;;;;;;4824978;29;20472;-83
2022/02/16 03:37:08;;;;;;;16.48;9.55;;;;;;;;;;4824877;29;20033;-84
2022/02/16 03:39:35;;;;;;;13.77;8.68;;;;;;;;;;4825922;29;20057;-83
2022/02/16 03:42:02;;;;;;;16.67;10.02;;;;;;;;;;4824830;29;20039;-82
2022/02/16 03:44:28;;;;;;;17.90;9.75;;;;;;;;;;4824624;29;20038;-82
2022/02/16 03:46:55;;;;;;;17.08;9.98;;;;;;;;;;4824431;29;20034;-82
2022/02/16 03:49:21;;;;;;;15.68;8.65;;;;;;;;;;4826050;29;20027;-82
2022/02/16 03:51:48;;;;;;;17.55;8.93;;;;;;;;;;4826052;29;20092;-83
2022/02/16 03:54:14;;;;;;;17.30;9.73;;;;;;;;;;4826180;29;20079;-82
2022/02/16 03:56:40;;;;;;;17.42;10.02;;;;;;;;;;4824529;29;20484;-82
2022/02/16 03:59:06;;;;;;;18.20;10.65;;;;;;;;;;4824836;29;20395;-82
2022/02/16 04:01:33;;;;;;;18.42;10.30;;;;;;;;;;4824730;29;20042;-82
2022/02/16 04:04:00;;;;;;;16.20;9.70;;;;;;;;;;4824671;29;20038;-80
2022/02/16 04:06:26;;;;;;;20.45;11.38;;;;;;;;;;4824586;29;20506;-82
2022/02/16 04:08:52;;;;;;;17.42;10.20;;;;;;;;;;4824318;29;20045;-82
2022/02/16 04:11:20;;;;;;;19.88;11.43;;;;;;;;;;4824295;29;20069;-82
2022/02/16 04:13:49;;;;;;;23.73;11.73;;;;;;;;;;4825710;29;20030;-83
2022/02/16 04:16:16;;;;;;;19.00;10.77;;;;;;;;;;4825706;29;20034;-83
2022/02/16 04:18:42;;;;;;;23.98;11.90;;;;;;;;;;4824529;29;20075;-83
2022/02/16 04:21:08;;;;;;;21.35;11.77;;;;;;;;;;4824183;29;20037;-83
2022/02/16 04:23:34;;;;;;;22.10;11.65;;;;;;;;;;4825942;29;20490;-86
2022/02/16 04:26:01;;;;;;;20.20;11.25;;;;;;;;;;4825721;29;20035;-82
2022/02/16 04:28:28;;;;;;;20.63;12.27;;;;;;;;;;4826780;29;20034;-83
2022/02/16 04:30:54;;;;;;;20.73;11.45;;;;;;;;;;4827724;29;20062;-83
2022/02/16 04:33:20;;;;;;;22.70;11.70;;;;;;;;;;4824999;29;20074;-83
2022/02/16 04:35:46;;;;;;;23.85;12.20;;;;;;;;;;4823849;29;20494;-83
2022/02/16 04:38:12;;;;;;;20.95;11.63;;;;;;;;;;4824972;29;20050;-83
2022/02/16 04:40:39;;;;;;;21.00;11.63;;;;;;;;;;4823812;29;20079;-83
2022/02/16 04:43:05;;;;;;;21.80;11.48;;;;;;;;;;4825034;29;20042;-83
2022/02/16 04:45:35;;;;;;;20.30;11.52;;;;;;;;;;4823384;29;20033;-82
2022/02/16 04:48:02;;;;;;;22.90;11.48;;;;;;;;;;4823761;29;20034;-83
2022/02/16 04:50:28;;;;;;;20.88;10.98;;;;;;;;;;4823733;29;20030;-83
2022/02/16 04:52:54;;;;;;;20.95;11.77;;;;;;;;;;4823709;29;20090;-82
2022/02/16 04:55:22;;;;;;;20.23;11.05;;;;;;;;;;4823740;29;20125;-83
2022/02/16 04:57:48;;;;;;;20.75;11.73;;;;;;;;;;4823625;29;20480;-83
2022/02/16 05:00:14;;;;;;;20.00;11.35;;;;;;;;;;4823545;29;20039;-83
2022/02/16 05:02:40;;;;;;;23.13;12.27;;;;;;;;;;4823359;29;20496;-83
2022/02/16 05:05:07;;;;;;;22.45;11.80;;;;;;;;;;4823650;29;20022;-84
2022/02/16 05:07:34;;;;;;;23.10;12.27;;;;;;;;;;4823209;29;20511;-83
2022/02/16 05:10:00;;;;;;;22.20;12.20;;;;;;;;;;4823469;29;20109;-81
2022/02/16 05:12:26;;;;;;;23.17;12.20;;;;;;;;;;4823271;29;20053;-81
2022/02/16 05:14:52;;;;;;;21.80;12.20;;;;;;;;;;4823272;29;20488;-83
2022/02/16 05:17:19;;;;;;;22.30;12.45;;;;;;;;;;4823063;29;20026;-83
2022/02/16 05:19:45;;;;;;;21.83;12.23;;;;;;;;;;4824561;29;20547;-82
2022/02/16 05:22:11;;;;;;;19.40;10.88;;;;;;;;;;4821851;29;20038;-81
2022/02/16 05:24:37;;;;;;;21.85;11.50;;;;;;;;;;4824348;29;20397;-80
2022/02/16 05:27:03;;;;;;;22.55;12.30;;;;;;;;;;4824292;29;20484;-81
2022/02/16 05:29:29;;;;;;;23.70;12.68;;;;;;;;;;4824406;29;20037;-81
2022/02/16 05:31:55;;;;;;;27.95;11.90;;;;;;;;;;4824361;29;20378;-82
2022/02/16 05:34:21;;;;;;;24.17;12.40;;;;;;;;;;4822886;29;20030;-83
2022/02/16 05:36:47;;;;;;;27.25;13.65;;;;;;;;;;4823741;29;20030;-82
2022/02/16 05:39:14;;;;;;;20.85;11.40;;;;;;;;;;4822844;29;20065;-82
2022/02/16 05:41:40;;;;;;;24.63;12.88;;;;;;;;;;4824201;29;20030;-81
2022/02/16 05:44:07;;;;;;;27.10;14.20;;;;;;;;;;4825052;29;20038;-80
2022/02/16 05:46:33;;;;;;;24.05;13.63;;;;;;;;;;4826728;29;20114;-86
2022/02/16 05:48:59;;;;;;;28.17;14.68;;;;;;;;;;4826820;29;20038;-83
2022/02/16 05:51:25;;;;;;;25.20;13.93;;;;;;;;;;4827473;29;20038;-80
2022/02/16 05:53:51;;;;;;;28.75;14.73;;;;;;;;;;4829994;29;20030;-82
2022/02/16 05:56:17;;;;;;;37.38;18.00;;;;;;;;;;4827462;29;20026;-81
2022/02/16 05:58:43;;;;;;;40.00;19.45;;;;;;;;;;4826385;29;20026;-84
2022/02/16 06:01:09;;;;;;;67.97;29.50;;;;;;;;;;4826106;29;20095;-82
2022/02/16 06:03:37;;;;;;;90.70;33.92;;;;;;;;;;4825953;29;20411;-80
2022/02/16 06:06:03;;;;;;;112.57;42.75;;;;;;;;;;4826183;29;20031;-81
2022/02/16 06:08:29;;;;;;;81.78;32.28;;;;;;;;;;4826437;29;20042;-85
2022/02/16 06:10:57;;;;;;;66.85;29.27;;;;;;;;;;4827055;29;20030;-83
2022/02/16 06:13:24;;;;;;;56.83;25.35;;;;;;;;;;4827814;29;20091;-85
2022/02/16 06:15:50;;;;;;;45.00;20.85;;;;;;;;;;4827876;29;20035;-84
2022/02/16 06:18:16;;;;;;;35.53;17.08;;;;;;;;;;4827764;29;20026;-79
2022/02/16 06:20:42;;;;;;;57.67;24.35;;;;;;;;;;4827560;29;20037;-81
2022/02/16 06:23:08;;;;;;;50.50;22.65;;;;;;;;;;4827160;29;20042;-80
2022/02/16 06:25:34;;;;;;;50.78;23.00;;;;;;;;;;4827473;29;20117;-83
2022/02/16 06:28:03;;;;;;;37.10;18.27;;;;;;;;;;4827321;29;20033;-79
2022/02/16 06:30:29;;;;;;;42.35;17.90;;;;;;;;;;4826367;29;20030;-85
2022/02/16 06:32:55;;;;;;;35.78;17.77;;;;;;;;;;4834707;29;20046;-80
2022/02/16 06:35:21;;;;;;;35.03;16.65;;;;;;;;;;4839382;29;20045;-81
2022/02/16 06:37:47;;;;;;;30.25;13.45;;;;;;;;;;4845589;29;20026;-83
2022/02/16 06:40:14;;;;;;;39.70;17.73;;;;;;;;;;4845799;29;20120;-82
2022/02/16 06:42:41;;;;;;;35.42;17.27;;;;;;;;;;4844579;29;20625;-82
2022/02/16 06:45:08;;;;;;;30.00;14.70;;;;;;;;;;4844809;29;20099;-83
2022/02/16 06:47:35;;;;;;;27.52;14.77;;;;;;;;;;4844482;29;20037;-84
2022/02/16 06:50:01;;;;;;;22.85;12.25;;;;;;;;;;4845340;29;20036;-84
2022/02/16 06:52:27;;;;;;;29.45;15.65;;;;;;;;;;4844534;29;20042;-82
2022/02/16 06:54:53;;;;;;;27.45;14.43;;;;;;;;;;4846587;29;20499;-81
2022/02/16 06:57:19;;;;;;;27.13;13.45;;;;;;;;;;4846346;29;20568;-83
2022/02/16 06:59:46;;;;;;;28.65;15.02;;;;;;;;;;4845354;29;20030;-81
2022/02/16 07:02:12;;;;;;;24.83;12.77;;;;;;;;;;4842074;29;20091;-83
2022/02/16 07:04:38;;;;;;;25.45;12.23;;;;;;;;;;4826708;29;20033;-82
2022/02/16 07:07:26;;;;;;;24.48;11.75;;;;;;;;;;4825469;29;20038;-81
2022/02/16 07:13:34;;;;;;;24.95;12.18;;;;;;;;;;4825346;29;20068;-86
2022/02/16 07:16:01;;;;;;;28.55;11.63;;;;;;;;;;4825027;29;20086;-82
2022/02/16 07:18:30;;;;;;;32.08;15.60;;;;;;;;;;4825489;29;20046;-83
2022/02/16 07:20:56;;;;;;;31.55;12.63;;;;;;;;;;4825619;29;20045;-84
2022/02/16 07:23:22;;;;;;;26.05;12.13;;;;;;;;;;4810345;29;20567;-86
2022/02/16 07:25:48;;;;;;;24.88;9.90;;;;;;;;;;4824431;29;20093;-85
2022/02/16 07:28:17;;;;;;;18.88;7.53;;;;;;;;;;4811485;29;20069;-86
2022/02/16 07:30:48;;;;;;;14.90;6.97;;;;;;;;;;4810152;29;20026;-83
2022/02/16 07:33:15;;;;;;;16.13;7.85;;;;;;;;;;4808805;29;20408;-81
2022/02/16 07:35:42;;;;;;;15.25;8.05;;;;;;;;;;4808880;29;20536;-85
2022/02/16 07:38:08;;;;;;;14.13;6.88;;;;;;;;;;4808194;29;20504;-80
2022/02/16 07:40:34;;;;;;;18.98;7.57;;;;;;;;;;4823590;29;20047;-78
2022/02/16 07:43:00;;;;;;;14.73;7.63;;;;;;;;;;4808523;29;20050;-83
2022/02/16 07:45:26;;;;;;;14.52;6.95;;;;;;;;;;4824670;29;20404;-80
2022/02/16 07:47:53;;;;;;;17.38;8.55;;;;;;;;;;4824544;29;20040;-81
2022/02/16 07:50:19;;;;;;;25.27;10.85;;;;;;;;;;4824221;29;20034;-80
2022/02/16 07:52:46;;;;;;;14.85;7.50;;;;;;;;;;4825663;29;20066;-81
2022/02/16 07:55:13;;;;;;;17.52;6.45;;;;;;;;;;4824974;29;20079;-83
2022/02/16 07:57:39;;;;;;;12.77;5.35;;;;;;;;;;4824780;29;20034;-86
2022/02/16 08:00:06;;;;;;;7.28;3.55;;;;;;;;;;4826157;29;20422;-83
2022/02/16 08:02:32;;;;;;;9.43;4.78;;;;;;;;;;4825003;29;20512;-83
2022/02/16 08:04:58;;;;;;;11.18;4.88;;;;;;;;;;4824848;29;20026;-83
2022/02/16 08:07:24;;;;;;;9.52;5.32;;;;;;;;;;4815740;29;20042;-86
2022/02/16 08:09:50;;;;;;;7.30;4.13;;;;;;;;;;4824772;29;20022;-85
2022/02/16 08:12:17;;;;;;;6.15;3.42;;;;;;;;;;4825705;29;20042;-85
2022/02/16 08:14:43;;;;;;;5.22;2.95;;;;;;;;;;4824779;29;20030;-85
2022/02/16 08:17:09;;;;;;;6.63;2.80;;;;;;;;;;4824838;29;20030;-82
2022/02/16 08:19:36;;;;;;;6.05;2.45;;;;;;;;;;4826234;29;20030;-86
2022/02/16 08:22:02;;;;;;;5.72;2.97;;;;;;;;;;4824782;29;20038;-87
2022/02/16 08:24:29;;;;;;;3.80;2.22;;;;;;;;;;4824611;29;20033;-87
2022/02/16 08:26:55;;;;;;;3.78;2.50;;;;;;;;;;4825789;29;20040;-86
2022/02/16 08:29:31;;;;;;;4.85;2.78;;;;;;;;;;5070999;28;20376;-86
2022/02/16 08:31:58;;;;;;;3.58;1.90;;;;;;;;;;5069668;28;20029;-84
2022/02/16 08:34:24;;;;;;;4.57;2.50;;;;;;;;;;5070778;28;20025;-85
2022/02/16 08:36:55;;;;;;;4.68;2.45;;;;;;;;;;5070945;28;20051;-85
2022/02/16 08:39:23;;;;;;;3.75;2.30;;;;;;;;;;5069189;28;20039;-85
2022/02/16 08:41:49;;;;;;;5.18;2.67;;;;;;;;;;5070540;28;20016;-87
2022/02/16 08:44:15;;;;;;;2.78;1.73;;;;;;;;;;5069508;28;20029;-88
2022/02/16 08:46:41;;;;;;;3.92;2.33;;;;;;;;;;5069528;28;20064;-85
2022/02/16 08:49:07;;;;;;;4.32;2.42;;;;;;;;;;5068920;28;20043;-81
2022/02/16 08:51:33;;;;;;;6.50;2.78;;;;;;;;;;5070893;28;20363;-86
2022/02/16 08:53:59;;;;;;;6.03;2.72;;;;;;;;;;5070180;28;20474;-87
2022/02/16 08:56:29;;;;;;;4.55;2.30;;;;;;;;;;5070036;28;20028;-84
2022/02/16 08:58:56;;;;;;;3.97;2.30;;;;;;;;;;5071465;28;20104;-91
2022/02/16 09:01:22;;;;;;;4.35;1.77;;;;;;;;;;5071575;28;20028;-83
2022/02/16 09:03:48;;;;;;;3.40;1.60;;;;;;;;;;5071108;28;20078;-82
2022/02/16 09:06:14;;;;;;;4.30;1.95;;;;;;;;;;5072054;28;20033;-92
2022/02/16 09:08:41;;;;;;;2.55;1.42;;;;;;;;;;5072252;28;20071;-90
2022/02/16 09:11:07;;;;;;;2.80;1.65;;;;;;;;;;5070568;28;20028;-93
2022/02/16 09:13:33;;;;;;;3.13;1.42;;;;;;;;;;5071041;28;20032;-86
2022/02/16 09:15:59;;;;;;;3.28;1.20;;;;;;;;;;5069231;28;20025;-86
2022/02/16 09:18:25;;;;;;;2.80;0.88;;;;;;;;;;5069141;28;20032;-89
2022/02/16 09:20:51;;;;;;;2.83;0.68;;;;;;;;;;5069221;28;20490;-88
2022/02/16 09:23:18;;;;;;;4.32;0.80;;;;;;;;;;5069134;28;20063;-86
2022/02/16 09:25:45;;;;;;;5.13;1.00;;;;;;;;;;5068945;28;20020;-83
2022/02/16 09:28:12;;;;;;;3.28;0.80;;;;;;;;;;5068505;28;20053;-85
2022/02/16 09:30:38;;;;;;;1.80;0.70;;;;;;;;;;5069416;28;20362;-87
2022/02/16 09:33:05;;;;;;;3.38;0.60;;;;;;;;;;5071689;28;20448;-81
2022/02/16 09:35:31;;;;;;;1.65;0.52;;;;;;;;;;5072249;28;20029;-81
2022/02/16 09:37:57;;;;;;;1.52;0.30;;;;;;;;;;5068320;28;20025;-82
2022/02/16 09:40:23;;;;;;;1.58;0.47;;;;;;;;;;5057773;28;20367;-81
2022/02/16 09:42:49;;;;;;;3.13;1.52;;;;;;;;;;5055281;28;20021;-89
2022/02/16 09:45:16;;;;;;;10.07;3.33;;;;;;;;;;5055279;28;20076;-82
2022/02/16 09:47:43;;;;;;;5.90;2.83;;;;;;;;;;5056157;28;20033;-83
2022/02/16 09:50:11;;;;;;;6.72;3.75;;;;;;;;;;5054651;28;20055;-82
2022/02/16 09:52:39;;;;;;;7.57;3.72;;;;;;;;;;5055052;28;20052;-90
2022/02/16 09:55:05;;;;;;;7.18;4.10;;;;;;;;;;5057082;28;20025;-87
2022/02/16 09:57:31;;;;;;;7.28;4.40;;;;;;;;;;5057174;28;20036;-82
2022/02/16 09:59:57;;;;;;;11.35;4.35;;;;;;;;;;5056525;28;20032;-89
2022/02/16 10:02:34;;;;;;;7.15;3.80;;;;;;;;;;5055516;28;20021;-90
2022/02/16 10:05:00;;;;;;;6.72;3.92;;;;;;;;;;5055711;28;20017;-89
2022/02/16 10:07:27;;;;;;;7.32;3.40;;;;;;;;;;5055060;28;20103;-89
2022/02/16 10:09:55;;;;;;;6.53;4.30;;;;;;;;;;5058833;28;20504;-86
2022/02/16 10:12:32;;;;;;;10.77;4.18;;;;;;;;;;5054801;28;20025;-82
2022/02/16 10:14:58;;;;;;;6.80;3.83;;;;;;;;;;5054258;28;20111;-80
2022/02/16 10:17:25;;;;;;;7.32;3.22;;;;;;;;;;5054915;28;20024;-83
2022/02/16 10:19:53;;;;;;;7.03;3.50;;;;;;;;;;5054607;28;20385;-88
2022/02/16 10:22:21;;;;;;;7.53;4.18;;;;;;;;;;5054420;28;20036;-89
2022/02/16 10:24:47;;;;;;;9.02;4.30;;;;;;;;;;5055740;28;20130;-84
2022/02/16 10:27:14;;;;;;;6.00;3.60;;;;;;;;;;5054018;28;20032;-88
2022/02/16 10:29:42;;;;;;;8.60;4.13;;;;;;;;;;5054442;28;20117;-83
2022/02/16 10:32:08;;;;;;;7.40;3.33;;;;;;;;;;5055654;28;20448;-89
2022/02/16 10:34:47;;;;;;;6.80;3.30;;;;;;;;;;5054439;28;20029;-87
2022/02/16 10:37:13;;;;;;;6.18;3.28;;;;;;;;;;5054299;28;20383;-82
2022/02/16 10:39:43;;;;;;;5.82;3.30;;;;;;;;;;5053896;28;20029;-81
2022/02/16 10:42:12;;;;;;;5.38;2.95;;;;;;;;;;5053662;28;20029;-83
2022/02/16 10:44:40;;;;;;;7.43;3.13;;;;;;;;;;5053871;28;20075;-84
2022/02/16 10:47:10;;;;;;;5.45;2.78;;;;;;;;;;5053816;28;20474;-80
2022/02/16 10:49:46;;;;;;;5.75;3.13;;;;;;;;;;5053651;28;20033;-81
2022/02/16 10:52:13;;;;;;;5.80;3.10;;;;;;;;;;5053907;28;20021;-81
2022/02/16 10:54:40;;;;;;;5.85;3.00;;;;;;;;;;5053660;28;20029;-82
2022/02/16 10:57:07;;;;;;;4.45;2.60;;;;;;;;;;5053728;28;20395;-88
2022/02/16 10:59:33;;;;;;;4.78;2.60;;;;;;;;;;5053749;28;20021;-81
2022/02/16 11:02:07;;;;;;;6.10;2.10;;;;;;;;;;5053622;28;20036;-89
2022/02/16 11:04:35;;;;;;;3.60;1.95;;;;;;;;;;5053543;28;20116;-82
2022/02/16 11:07:01;;;;;;;4.28;2.17;;;;;;;;;;5053625;28;20047;-85
2022/02/16 11:09:29;;;;;;;4.32;2.28;;;;;;;;;;5053315;28;20547;-83
2022/02/16 11:11:56;;;;;;;3.72;1.70;;;;;;;;;;5053522;28;20386;-82
2022/02/16 11:14:25;;;;;;;2.90;1.52;;;;;;;;;;5053526;28;20025;-83
2022/02/16 11:16:52;;;;;;;3.55;1.83;;;;;;;;;;5053753;28;20420;-82
2022/02/16 11:19:28;;;;;;;3.60;2.08;;;;;;;;;;5054573;28;20029;-84
2022/02/16 11:22:01;;;;;;;3.78;1.85;;;;;;;;;;5054366;28;20041;-81
2022/02/16 11:24:31;;;;;;;4.10;1.90;;;;;;;;;;5057725;28;20048;-83
2022/02/16 11:26:58;;;;;;;3.50;1.85;;;;;;;;;;5053607;28;20538;-88
2022/02/16 11:29:27;;;;;;;4.15;1.85;;;;;;;;;;5052880;28;20053;-89
2022/02/16 11:31:54;;;;;;;4.68;2.15;;;;;;;;;;5053304;28;20473;-81
2022/02/16 11:34:22;;;;;;;8.38;2.40;;;;;;;;;;5053189;28;20057;-87
2022/02/16 11:36:55;;;;;;;3.40;1.85;;;;;;;;;;5054551;28;20021;-82
2022/02/16 11:39:21;;;;;;;;;;;;;;;;;;5053663;28;20489;-82
2022/02/16 11:41:56;;;;;;;3.63;2.00;;;;;;;;;;5053042;28;19912;-83
2022/02/16 11:44:22;;;;;;;4.38;2.10;;;;;;;;;;5052710;28;20029;-88
2022/02/16 11:46:54;;;;;;;5.00;2.05;;;;;;;;;;5054074;28;20025;-87
2022/02/16 11:49:26;;;;;;;5.03;2.20;;;;;;;;;;5054290;28;20040;-88
2022/02/16 11:51:52;;;;;;;3.25;1.73;;;;;;;;;;5052987;28;20119;-81
2022/02/16 11:54:37;;;;;;;2.20;1.20;;;;;;;;;;5054344;28;20565;-82
2022/02/16 11:57:22;;;;;;;11.18;1.70;;;;;;;;;;5053257;28;20032;-89
2022/02/16 11:59:55;;;;;;;2.72;1.50;;;;;;;;;;5053252;28;20025;-83
2022/02/16 12:02:21;;;;;;;3.60;1.55;;;;;;;;;;5052713;28;20028;-83
2022/02/16 12:04:48;;;;;;;2.83;1.40;;;;;;;;;;5053188;28;20036;-84
2022/02/16 12:07:27;;;;;;;3.63;2.00;;;;;;;;;;5053362;28;20390;-87
2022/02/16 12:10:12;;;;;;;3.42;1.83;;;;;;;;;;5053134;28;20044;-84
2022/02/16 12:12:38;;;;;;;4.75;1.70;;;;;;;;;;5052646;28;20029;-83
2022/02/16 12:15:04;;;;;;;3.92;1.60;;;;;;;;;;5053053;28;20033;-82
2022/02/16 12:17:31;;;;;;;3.33;1.50;;;;;;;;;;5052705;28;20128;-88
2022/02/16 12:19:57;;;;;;;3.53;1.75;;;;;;;;;;5052712;28;20028;-80
2022/02/16 12:22:23;;;;;;;7.15;2.03;;;;;;;;;;5051995;28;20083;-80
2022/02/16 12:24:49;;;;;;;5.45;2.10;;;;;;;;;;5053376;28;20025;-81
2022/02/16 12:27:20;;;;;;;3.08;1.83;;;;;;;;;;5054278;28;20059;-83
2022/02/16 12:29:48;;;;;;;2.58;1.45;;;;;;;;;;5056687;28;20049;-84
2022/02/16 12:32:19;;;;;;;2.70;1.45;;;;;;;;;;5042307;28;20088;-85
2022/02/16 12:34:46;;;;;;;2.10;1.17;;;;;;;;;;5034061;28;20029;-84
2022/02/16 12:37:15;;;;;;;2.88;1.45;;;;;;;;;;5032218;28;20096;-80
2022/02/16 12:39:41;;;;;;;3.15;1.60;;;;;;;;;;5033078;28;20029;-80
2022/02/16 12:42:09;;;;;;;2.35;1.00;;;;;;;;;;5032172;28;20034;-82
2022/02/16 12:44:36;;;;;;;3.92;1.20;;;;;;;;;;5033568;28;20378;-82
2022/02/16 12:47:03;;;;;;;3.03;1.70;;;;;;;;;;5033333;28;20104;-83
2022/02/16 12:49:30;;;;;;;4.20;1.40;;;;;;;;;;5031807;28;20402;-84
2022/02/16 12:51:57;;;;;;;3.33;1.83;;;;;;;;;;5032183;28;20076;-83
2022/02/16 12:54:41;;;;;;;3.13;1.65;;;;;;;;;;5033621;28;20057;-85
2022/02/16 12:57:08;;;;;;;3.28;1.35;;;;;;;;;;5031955;28;20025;-81
2022/02/16 13:00:46;;;;;;;3.10;1.67;;;;;;;;;;5031652;28;20025;-81
2022/02/16 13:02:30;;;;;;;2.83;1.45;;;;;;;;;;5051064;28;20459;-80
2022/02/16 13:05:03;;;;;;;2.90;1.40;;;;;;;;;;5053154;28;20020;-85
2022/02/16 13:07:31;;;;;;;2.67;1.45;;;;;;;;;;5052924;28;20401;-86
2022/02/16 13:09:57;;;;;;;2.40;1.25;;;;;;;;;;5053284;28;20036;-82
2022/02/16 13:12:34;;;;;;;2.90;1.50;;;;;;;;;;5051369;28;20051;-83
2022/02/16 13:15:04;;;;;;;3.42;1.80;;;;;;;;;;5053566;28;20029;-79
2022/02/16 13:17:57;;;;;;;4.30;1.60;;;;;;;;;;5056802;28;20024;-84
2022/02/16 13:20:32;;;;;;;2.42;1.30;;;;;;;;;;5033249;28;20518;-84
2022/02/16 13:22:59;;;;;;;3.40;1.63;;;;;;;;;;5055201;28;20111;-81
2022/02/16 13:25:28;;;;;;;3.78;1.30;;;;;;;;;;5056399;28;20033;-83
2022/02/16 13:27:55;;;;;;;4.13;1.80;;;;;;;;;;5054675;28;20099;-80
2022/02/16 13:30:22;;;;;;;2.95;1.73;;;;;;;;;;5055053;28;20029;-81
2022/02/16 13:32:50;;;;;;;3.45;1.40;;;;;;;;;;5055379;28;20075;-84
2022/02/16 13:35:29;;;;;;;3.92;1.75;;;;;;;;;;5055036;28;20072;-81
2022/02/16 13:38:08;;;;;;;3.60;1.50;;;;;;;;;;5056092;28;20091;-80
2022/02/16 13:40:49;;;;;;;2.58;1.33;;;;;;;;;;5055078;28;20028;-84
2022/02/16 13:43:15;;;;;;;2.92;1.80;;;;;;;;;;5054772;28;20021;-82
2022/02/16 13:45:42;;;;;;;3.58;1.95;;;;;;;;;;5054897;28;20058;-82
2022/02/16 13:48:08;;;;;;;4.53;1.83;;;;;;;;;;5054739;28;20040;-85
2022/02/16 13:50:39;;;;;;;3.30;1.63;;;;;;;;;;5055660;28;20021;-84
2022/02/16 13:53:06;;;;;;;3.17;1.60;;;;;;;;;;5054953;28;20079;-82
2022/02/16 13:55:46;;;;;;;3.08;1.27;;;;;;;;;;5055864;28;20036;-82
2022/02/16 13:58:13;;;;;;;2.22;1.30;;;;;;;;;;5054805;28;20049;-80
2022/02/16 14:00:39;;;;;;;9.45;1.30;;;;;;;;;;5055709;28;20017;-82
2022/02/16 14:03:10;;;;;;;2.25;1.02;;;;;;;;;;5055559;28;20033;-82
2022/02/16 14:05:36;;;;;;;2.97;1.45;;;;;;;;;;5054333;28;20017;-80
2022/02/16 14:08:04;;;;;;;3.38;1.58;;;;;;;;;;5054374;28;20033;-83
2022/02/16 14:10:31;;;;;;;4.03;1.75;;;;;;;;;;5055631;28;20032;-82
2022/02/16 14:12:58;;;;;;;4.00;1.60;;;;;;;;;;5054297;28;20537;-83
2022/02/16 14:15:24;;;;;;;3.30;1.80;;;;;;;;;;5055195;28;20021;-79
2022/02/16 14:17:50;;;;;;;2.50;1.33;;;;;;;;;;5054337;28;20029;-81
2022/02/16 14:20:17;;;;;;;5.47;1.30;;;;;;;;;;5054201;28;20036;-80
2022/02/16 14:22:44;;;;;;;3.25;1.48;;;;;;;;;;5055372;28;20109;-78
2022/02/16 14:25:10;;;;;;;3.28;1.70;;;;;;;;;;5054169;28;20565;-79
2022/02/16 14:27:37;;;;;;;3.25;1.58;;;;;;;;;;5055212;28;20132;-80
2022/02/16 14:30:04;;;;;;;3.17;1.52;;;;;;;;;;5056316;28;20051;-79
2022/02/16 14:32:30;;;;;;;3.67;1.38;;;;;;;;;;5058645;28;20029;-79
2022/02/16 14:34:58;;;;;;;2.83;1.45;;;;;;;;;;5055385;28;20025;-81
2022/02/16 14:37:26;;;;;;;2.70;1.50;;;;;;;;;;5054599;28;20027;-84
2022/02/16 14:39:53;;;;;;;3.55;1.88;;;;;;;;;;5053557;28;20143;-80
2022/02/16 14:42:19;;;;;;;3.92;2.00;;;;;;;;;;5053211;28;20111;-79